Terrenceville, Canada
Current Conditions -  °F | °C
As of 1:00 PM on Tuesday 21 Oct 2014 (Local Time) from CYQX Reporting Station
Broken Clouds Broken Clouds  
Wind Chill: 40°   Ceiling: 2800
Heat Index: 46°   Visibility: 20mi
Dew Point: 37°   Wind: 15mph
Humidity: 71%   Direction: 270°W
Pressure: 29.96"   Gusts: 29mph
Location:  47.68°N, 54.72°W
Report Text: CYQX 211500Z 27013G25KT 20SM BKN028 08/03 A2996 RMK SC7 SLP151
Loading
Personal Weather Stations






























Interactive Weather Map New forecast layout! Learn more

10-Day Weather Forecast

Advertisements
Track Severe Weather on mobile